Time;durP1;ratioP1;P1;durP2;ratioP2;P2;SDS_P1;SDS_P2;PMS_P1;PMS_P2;Temp;Humidity;BMP_temperature;BMP_pressure;BME280_temperature;BME280_humidity;BME280_pressure;Samples;Min_cycle;Max_cycle;Signal;HPM_P1;HPM_P2
2023/01/29 00:02:16;;;;;;;16.58;15.07;;;;;;;3.64;67.52;102978.97;5016847;28;20100;-85
2023/01/29 00:04:41;;;;;;;14.88;13.55;;;;;;;3.64;67.79;102973.63;5016509;28;20062;-85
2023/01/29 00:07:07;;;;;;;11.60;10.88;;;;;;;3.63;67.82;102969.28;5016713;28;20103;-84
2023/01/29 00:09:33;;;;;;;17.13;15.55;;;;;;;3.62;67.82;102973.75;5016491;28;20038;-84
2023/01/29 00:11:58;;;;;;;13.85;13.00;;;;;;;3.61;67.52;102974.75;5016487;28;20045;-84
2023/01/29 00:14:25;;;;;;;16.70;15.30;;;;;;;3.61;67.45;102976.59;5016486;28;20037;-85
2023/01/29 00:16:50;;;;;;;17.08;15.43;;;;;;;3.60;67.59;102966.88;5016230;28;20037;-84
2023/01/29 00:19:16;;;;;;;15.35;14.02;;;;;;;3.58;67.66;102972.38;5016194;28;20030;-84
2023/01/29 00:21:42;;;;;;;15.32;14.10;;;;;;;3.59;67.86;102971.38;5016089;28;20115;-81
2023/01/29 00:24:07;;;;;;;14.38;13.38;;;;;;;3.58;67.80;102955.47;5015868;28;20030;-75
2023/01/29 00:26:33;;;;;;;16.10;14.65;;;;;;;3.56;67.85;102952.97;5016062;28;20105;-86
2023/01/29 00:29:01;;;;;;;13.80;12.82;;;;;;;3.55;67.70;102953.94;5016293;28;20069;-85
2023/01/29 00:31:26;;;;;;;15.77;14.25;;;;;;;3.55;67.58;102956.59;5016007;28;20026;-83
2023/01/29 00:33:52;;;;;;;14.43;13.32;;;;;;;3.54;67.59;102952.25;5016402;28;20032;-84
2023/01/29 00:36:19;;;;;;;15.38;14.20;;;;;;;3.54;67.55;102954.09;5016045;28;20486;-83
2023/01/29 00:38:53;;;;;;;12.27;11.10;;;;;;;3.53;67.86;102947.91;5015814;28;20060;-83
2023/01/29 00:46:49;;;;;;;14.35;13.25;;;;;;;3.50;67.79;102937.47;5015699;28;20137;-83
2023/01/29 00:49:14;;;;;;;12.68;11.90;;;;;;;3.50;67.83;102925.94;5015964;28;20424;-83
2023/01/29 00:51:40;;;;;;;12.73;11.75;;;;;;;3.49;68.00;102930.47;5015883;28;20030;-84
2023/01/29 00:54:05;;;;;;;13.25;12.35;;;;;;;3.49;67.65;102921.59;5015725;28;20410;-84
2023/01/29 00:56:33;;;;;;;15.88;14.32;;;;;;;3.50;67.72;102909.91;5015415;28;20477;-83
2023/01/29 00:58:59;;;;;;;14.30;13.30;;;;;;;3.47;67.63;102914.56;5015623;28;20088;-82
2023/01/29 01:04:25;;;;;;;17.55;15.45;;;;;;;3.46;67.89;102912.06;4974105;28;20129;-77
2023/01/29 01:06:50;;;;;;;14.25;13.13;;;;;;;3.45;67.55;102915.69;5006762;28;20080;-86
2023/01/29 01:11:59;;;;;;;13.75;12.90;;;;;;;3.44;67.74;102922.03;5015298;28;20100;-85
2023/01/29 01:14:25;;;;;;;12.93;12.18;;;;;;;3.43;67.53;102915.84;5014929;28;20033;-84
2023/01/29 01:16:50;;;;;;;15.60;14.23;;;;;;;3.42;67.57;102911.47;5013502;28;20496;-84
2023/01/29 01:19:16;;;;;;;11.60;10.70;;;;;;;3.42;67.60;102903.47;5014956;28;20113;-84
2023/01/29 01:21:47;;;;;;;11.82;10.93;;;;;;;3.42;67.72;102906.13;5015416;28;20377;-85
2023/01/29 01:24:12;;;;;;;14.27;13.32;;;;;;;3.42;67.83;102913.31;5015371;28;20034;-84
2023/01/29 01:26:38;;;;;;;15.63;14.32;;;;;;;3.41;67.59;102904.44;5016112;28;20030;-86
2023/01/29 01:29:03;;;;;;;16.95;15.10;;;;;;;3.41;67.75;102909.81;5016660;28;20030;-83
2023/01/29 01:31:29;;;;;;;11.82;10.82;;;;;;;3.40;67.68;102910.78;5015787;28;20084;-76
2023/01/29 01:33:54;;;;;;;12.63;11.73;;;;;;;3.40;67.77;102902.78;5014041;28;20489;-83
2023/01/29 01:36:20;;;;;;;13.45;12.15;;;;;;;3.39;67.81;102902.91;5020750;28;20076;-83
2023/01/29 01:38:45;;;;;;;13.93;12.60;;;;;;;3.39;67.68;102903.75;5031033;28;20091;-82
2023/01/29 01:41:16;;;;;;;15.13;13.90;;;;;;;3.39;67.76;102902.91;5029835;28;20045;-84
2023/01/29 01:43:56;;;;;;;14.40;13.25;;;;;;;3.38;67.81;102907.41;5022199;28;20053;-83
2023/01/29 01:46:22;;;;;;;12.57;11.77;;;;;;;3.37;67.80;102911.06;5023886;28;20028;-84
2023/01/29 01:48:57;;;;;;;22.08;17.25;;;;;;;3.38;67.63;102922.59;5020512;28;20526;-84
2023/01/29 01:51:25;;;;;;;27.73;16.52;;;;;;;3.37;67.57;102910.22;5015024;28;20108;-84
2023/01/29 01:54:06;;;;;;;12.50;11.45;;;;;;;3.37;67.55;102912.88;5015005;28;20029;-82
2023/01/29 01:56:40;;;;;;;13.90;13.00;;;;;;;3.36;67.44;102914.72;5015962;28;20110;-75
2023/01/29 01:59:15;;;;;;;12.35;11.52;;;;;;;3.35;67.43;102923.75;5017426;28;20030;-84
2023/01/29 02:01:46;;;;;;;13.02;11.90;;;;;;;3.35;67.64;102917.53;5019081;28;20065;-84
2023/01/29 02:10:20;;;;;;;16.25;14.57;;;;;;;3.33;67.96;102919.53;5014676;28;20160;-85
2023/01/29 02:12:46;;;;;;;14.10;12.93;;;;;;;3.32;67.61;102918.66;4980872;28;20089;-84
2023/01/29 02:15:12;;;;;;;11.95;11.25;;;;;;;3.32;67.91;102931.16;5014623;28;20038;-84
2023/01/29 02:17:37;;;;;;;15.90;14.23;;;;;;;3.31;67.65;102927.66;5014448;28;20033;-88
2023/01/29 02:20:18;;;;;;;11.98;11.15;;;;;;;3.31;67.87;102933.00;5014850;28;20062;-87
2023/01/29 02:23:02;;;;;;;13.52;12.60;;;;;;;3.30;67.66;102927.78;5014513;28;20462;-85
2023/01/29 02:25:58;;;;;;;14.50;13.20;;;;;;;3.30;67.76;102927.78;5014979;28;20025;-83
2023/01/29 02:28:32;;;;;;;13.30;12.15;;;;;;;3.29;67.54;102934.97;5014522;28;20033;-76
2023/01/29 02:31:43;;;;;;;13.23;12.32;;;;;;;3.29;67.91;102936.81;5013969;28;20026;-85
2023/01/29 02:34:27;;;;;;;10.82;10.20;;;;;;;3.27;67.55;102928.91;4934575;29;20067;-86
2023/01/29 02:37:02;;;;;;;15.43;13.88;;;;;;;3.28;67.77;102927.94;5007421;28;20056;-85
2023/01/29 02:39:48;;;;;;;11.07;9.68;;;;;;;3.28;67.62;102933.28;5014720;28;20030;-87
2023/01/29 02:42:17;;;;;;;13.13;12.25;;;;;;;3.27;67.76;102923.56;5014545;28;20022;-83
2023/01/29 02:44:53;;;;;;;17.80;14.70;;;;;;;3.27;67.85;102920.91;5014047;28;20088;-83
2023/01/29 02:47:23;;;;;;;18.45;15.55;;;;;;;3.27;67.79;102923.56;5017219;28;20022;-83
2023/01/29 02:50:13;;;;;;;16.67;14.68;;;;;;;3.27;67.85;102920.91;5025841;28;20026;-85
2023/01/29 02:52:57;;;;;;;17.92;15.98;;;;;;;3.27;67.47;102915.56;5015362;28;20472;-77
2023/01/29 02:55:48;;;;;;;17.85;13.98;;;;;;;3.27;68.03;102920.91;5018886;28;20030;-86
2023/01/29 02:58:29;;;;;;;14.68;13.68;;;;;;;3.27;67.88;102917.41;5008807;28;20034;-84
2023/01/29 03:00:59;;;;;;;16.13;14.48;;;;;;;3.26;67.98;102911.22;5020928;28;20032;-87
2023/01/29 03:03:31;;;;;;;12.50;11.55;;;;;;;3.27;67.66;102920.06;5019582;28;20029;-85
2023/01/29 03:06:27;;;;;;;15.57;14.23;;;;;;;3.25;67.49;102917.53;5017227;28;20022;-83
2023/01/29 03:08:57;;;;;;;16.67;15.13;;;;;;;3.25;67.58;102913.06;5018402;28;20424;-85
2023/01/29 03:11:23;;;;;;;14.73;13.55;;;;;;;3.25;67.74;102905.03;5017924;28;20030;-85
2023/01/29 03:14:07;;;;;;;16.80;15.45;;;;;;;3.25;67.73;102904.16;5017622;28;20068;-85
2023/01/29 03:16:41;;;;;;;11.85;11.05;;;;;;;3.25;67.77;102912.19;5017582;28;20140;-86
2023/01/29 03:19:15;;;;;;;17.17;14.38;;;;;;;3.24;67.55;102902.50;5017558;28;20022;-84
2023/01/29 03:22:00;;;;;;;12.00;11.10;;;;;;;3.24;67.96;102907.84;5017894;28;20457;-81
2023/01/29 03:33:06;;;;;;;13.63;11.85;;;;;;;3.24;67.86;102891.81;5018134;28;20088;-87
2023/01/29 03:35:38;;;;;;;12.68;11.52;;;;;;;3.23;67.95;102893.66;5016936;28;20381;-86
2023/01/29 03:38:08;;;;;;;13.35;12.27;;;;;;;3.24;67.88;102900.66;5015856;28;20032;-85
2023/01/29 03:40:47;;;;;;;18.25;16.35;;;;;;;3.24;67.73;102899.81;5015653;28;20108;-85
2023/01/29 03:43:33;;;;;;;14.30;12.88;;;;;;;3.23;68.04;102899.00;5016420;28;20104;-88
2023/01/29 03:46:27;;;;;;;15.93;14.45;;;;;;;3.23;67.73;102901.66;5015915;28;20393;-86
2023/01/29 03:49:07;;;;;;;14.68;13.18;;;;;;;3.24;67.93;102897.16;5016220;28;20038;-86
2023/01/29 03:51:59;;;;;;;15.20;12.85;;;;;;;3.23;67.79;102890.13;5016520;28;20048;-86
2023/01/29 03:54:34;;;;;;;13.98;12.75;;;;;;;3.22;68.00;102885.75;5019816;28;20018;-87
2023/01/29 03:57:04;;;;;;;13.38;12.27;;;;;;;3.23;67.72;102887.47;5018032;28;20068;-83
2023/01/29 03:59:37;;;;;;;16.92;15.15;;;;;;;3.22;68.29;102880.41;5016898;28;20076;-87
2023/01/29 04:02:07;;;;;;;19.10;13.77;;;;;;;3.21;67.93;102868.91;5015777;28;20061;-85
2023/01/29 04:04:35;;;;;;;16.75;15.27;;;;;;;3.22;67.86;102875.91;5015927;28;20028;-81
2023/01/29 04:07:11;;;;;;;14.80;13.65;;;;;;;3.23;67.91;102871.44;5016167;28;20037;-88
2023/01/29 04:09:47;;;;;;;13.68;12.77;;;;;;;3.23;67.76;102871.44;5015206;28;20109;-86
2023/01/29 04:12:17;;;;;;;15.18;13.80;;;;;;;3.24;67.96;102867.78;5015124;28;20490;-88
2023/01/29 04:14:45;;;;;;;14.57;13.27;;;;;;;3.24;68.16;102870.44;5016043;28;20034;-87
2023/01/29 04:17:16;;;;;;;15.45;14.25;;;;;;;3.24;68.00;102857.09;5015454;28;20034;-84
2023/01/29 04:19:43;;;;;;;15.02;13.60;;;;;;;3.24;67.75;102857.09;5019249;28;20377;-85
2023/01/29 04:22:19;;;;;;;15.68;13.95;;;;;;;3.24;67.89;102857.94;5019783;28;20029;-87
2023/01/29 04:24:46;;;;;;;16.13;15.02;;;;;;;3.24;67.86;102870.44;5015965;28;20034;-83
2023/01/29 04:27:49;;;;;;;12.60;11.13;;;;;;;3.24;68.05;102873.94;5015790;28;20029;-84
2023/01/29 04:30:32;;;;;;;18.25;14.55;;;;;;;3.24;67.89;102865.09;5014870;28;20072;-82
2023/01/29 04:33:12;;;;;;;15.30;14.00;;;;;;;3.24;68.07;102865.09;5016853;28;20022;-87
2023/01/29 04:35:47;;;;;;;18.40;15.85;;;;;;;3.23;67.86;102856.25;4983288;28;1108707;-84
2023/01/29 04:38:33;;;;;;;15.15;13.68;;;;;;;3.24;68.01;102854.41;5020779;28;20287;-84
2023/01/29 04:41:08;;;;;;;20.15;16.42;;;;;;;3.23;68.01;102848.25;5016553;28;20030;-84
2023/01/29 04:43:56;;;;;;;14.93;13.73;;;;;;;3.24;67.90;102849.06;5016056;28;20428;-88
2023/01/29 04:46:36;;;;;;;16.48;14.68;;;;;;;3.24;67.91;102838.41;5016681;28;20057;-84
2023/01/29 04:49:13;;;;;;;17.60;16.00;;;;;;;3.24;67.80;102833.06;5016758;28;20068;-85
2023/01/29 04:51:50;;;;;;;16.00;14.65;;;;;;;3.23;67.83;102829.53;5016175;28;20120;-85
2023/01/29 04:54:27;;;;;;;13.70;12.60;;;;;;;3.21;67.86;102828.84;5015900;28;20041;-86
2023/01/29 04:57:08;;;;;;;21.95;17.42;;;;;;;3.23;68.19;102828.72;5015907;28;20117;-86
2023/01/29 04:59:51;;;;;;;12.85;11.88;;;;;;;3.22;67.74;102822.50;5017195;28;20104;-84
2023/01/29 05:02:18;;;;;;;14.77;13.48;;;;;;;3.23;68.01;102828.72;5017499;28;20028;-82
2023/01/29 05:04:46;;;;;;;13.20;12.20;;;;;;;3.22;68.16;102827.84;5017031;28;20432;-87
2023/01/29 05:07:14;;;;;;;16.80;14.18;;;;;;;3.23;67.96;102815.34;5015348;28;20108;-84
2023/01/29 05:09:43;;;;;;;11.38;10.48;;;;;;;3.24;68.02;102825.88;5015645;28;20092;-84
2023/01/29 05:12:11;;;;;;;15.68;13.57;;;;;;;3.24;67.87;102822.38;5015471;28;20068;-85
2023/01/29 05:14:43;;;;;;;17.90;15.70;;;;;;;3.25;67.89;102811.56;5015591;28;20058;-86
2023/01/29 05:17:14;;;;;;;24.25;15.68;;;;;;;3.24;68.00;102806.34;5015783;28;20033;-84
2023/01/29 05:19:40;;;;;;;16.05;14.57;;;;;;;3.25;68.03;102800.00;5015819;28;20034;-87
2023/01/29 05:22:10;;;;;;;13.23;12.30;;;;;;;3.25;68.03;102800.00;5014668;28;20034;-86
2023/01/29 05:24:35;;;;;;;13.57;12.32;;;;;;;3.26;68.20;102793.69;5014185;28;20022;-84
2023/01/29 05:29:46;;;;;;;15.85;13.63;;;;;;;3.24;67.81;102777.81;5015665;28;20439;-84
2023/01/29 05:32:11;;;;;;;18.02;16.00;;;;;;;3.24;67.81;102771.63;5015465;28;20053;-84
2023/01/29 05:34:37;;;;;;;21.15;16.15;;;;;;;3.26;67.80;102775.00;5013373;28;20120;-85
2023/01/29 05:37:03;;;;;;;16.60;15.13;;;;;;;3.26;68.08;102777.66;5014825;28;20092;-81
2023/01/29 05:39:28;;;;;;;14.00;12.60;;;;;;;3.25;67.96;102784.84;5014815;28;20037;-84
2023/01/29 05:41:53;;;;;;;19.27;16.98;;;;;;;3.25;68.16;102784.84;5014841;28;20175;-86
2023/01/29 05:44:19;;;;;;;12.77;11.80;;;;;;;3.25;67.84;102776.84;5014943;28;20036;-84
2023/01/29 05:46:45;;;;;;;13.75;12.52;;;;;;;3.25;68.12;102775.97;5016185;28;20026;-85
2023/01/29 05:49:11;;;;;;;18.08;16.13;;;;;;;3.25;68.02;102790.19;5027000;28;20064;-83
2023/01/29 05:51:37;;;;;;;23.33;18.65;;;;;;;3.26;67.83;102801.72;5027110;28;20022;-84
2023/01/29 05:54:02;;;;;;;12.80;12.00;;;;;;;3.26;68.07;102799.03;5021594;28;20057;-77
2023/01/29 05:56:27;;;;;;;17.42;15.75;;;;;;;3.27;68.12;102803.38;5025984;28;20052;-87
2023/01/29 05:58:53;;;;;;;18.83;17.00;;;;;;;3.26;67.92;102804.38;5027686;28;20037;-85
2023/01/29 06:01:22;;;;;;;21.85;18.70;;;;;;;3.27;67.93;102806.06;5016648;28;20459;-86
2023/01/29 06:03:48;;;;;;;17.58;15.70;;;;;;;3.27;67.95;102795.38;5014893;28;20102;-85
2023/01/29 06:06:14;;;;;;;17.73;16.00;;;;;;;3.27;68.31;102806.06;5014410;28;20116;-85
2023/01/29 06:08:40;;;;;;;22.70;18.95;;;;;;;3.28;68.21;102799.75;5024255;28;20030;-83
2023/01/29 06:11:10;;;;;;;14.30;13.30;;;;;;;3.27;68.10;102795.38;5027474;28;20456;-76
2023/01/29 06:13:36;;;;;;;18.25;15.48;;;;;;;3.28;67.95;102797.06;5026320;28;20073;-85
2023/01/29 06:16:10;;;;;;;12.85;12.05;;;;;;;3.29;68.24;102806.75;5015805;28;20034;-82
2023/01/29 06:18:36;;;;;;;22.85;18.35;;;;;;;3.29;68.15;102801.41;5018615;28;20033;-85
2023/01/29 06:21:06;;;;;;;20.02;17.35;;;;;;;3.29;67.96;102816.59;5014633;28;20080;-85
2023/01/29 06:23:32;;;;;;;23.15;17.10;;;;;;;3.29;68.06;102814.78;5014349;28;20033;-84
2023/01/29 06:26:05;;;;;;;16.70;15.23;;;;;;;3.30;68.33;102816.47;5013022;28;20395;-85
2023/01/29 06:28:31;;;;;;;19.13;16.77;;;;;;;3.29;67.95;102811.25;5014881;28;20429;-84
2023/01/29 06:30:58;;;;;;;19.48;16.73;;;;;;;3.28;67.78;102810.44;5014333;28;20473;-88
2023/01/29 06:33:24;;;;;;;19.33;17.45;;;;;;;3.29;67.96;102804.09;5014837;28;20076;-86
2023/01/29 06:35:57;;;;;;;18.00;16.10;;;;;;;3.29;68.10;102798.75;5014230;28;20042;-84
2023/01/29 06:38:23;;;;;;;19.10;17.10;;;;;;;3.30;67.90;102794.25;5013983;28;20026;-83
2023/01/29 06:40:48;;;;;;;12.10;11.30;;;;;;;3.29;67.89;102777.38;5014643;28;20080;-84
2023/01/29 06:43:14;;;;;;;15.70;14.25;;;;;;;3.29;67.86;102772.03;5014302;28;20041;-87
2023/01/29 06:45:46;;;;;;;15.52;13.95;;;;;;;3.30;68.27;102780.88;5013921;28;20096;-85
2023/01/29 06:48:12;;;;;;;20.45;15.80;;;;;;;3.29;67.94;102773.88;5014294;28;20030;-83
2023/01/29 06:50:37;;;;;;;24.25;17.02;;;;;;;3.29;68.11;102780.03;5014200;28;20042;-86
2023/01/29 06:53:02;;;;;;;12.07;11.00;;;;;;;3.29;67.93;102785.38;5014030;28;20113;-81
2023/01/29 06:55:28;;;;;;;25.25;17.30;;;;;;;3.29;68.36;102787.22;5014125;28;20107;-84
2023/01/29 06:57:53;;;;;;;20.42;18.23;;;;;;;3.28;68.38;102780.22;5013952;28;20040;-84
2023/01/29 07:00:19;;;;;;;18.13;16.55;;;;;;;3.29;68.08;102782.72;5014447;28;20117;-85
2023/01/29 07:02:48;;;;;;;14.80;13.45;;;;;;;3.29;68.38;102780.03;5015580;28;20036;-86
2023/01/29 07:05:13;;;;;;;;;;;;;;;3.29;68.08;102777.38;5015184;28;20026;-77
2023/01/29 07:07:39;;;;;;;15.35;13.90;;;;;;;3.28;68.36;102775.69;5013853;28;20369;-87
2023/01/29 07:10:05;;;;;;;16.58;14.73;;;;;;;3.27;68.28;102778.50;5013660;28;20033;-85
2023/01/29 07:12:30;;;;;;;12.85;11.80;;;;;;;3.27;67.96;102779.34;5014058;28;20041;-83
2023/01/29 07:14:55;;;;;;;14.00;12.88;;;;;;;3.27;68.20;102786.53;5016562;28;20080;-85
2023/01/29 07:17:21;;;;;;;17.13;15.52;;;;;;;3.27;68.33;102779.34;5016831;28;20041;-85
2023/01/29 07:19:46;;;;;;;26.15;19.08;;;;;;;3.28;68.23;102788.22;5013959;28;20053;-85
2023/01/29 07:22:11;;;;;;;18.83;17.20;;;;;;;3.28;68.14;102786.38;5014066;28;20116;-86
2023/01/29 07:24:37;;;;;;;17.77;15.85;;;;;;;3.29;68.48;102780.03;5013959;28;20041;-86
2023/01/29 07:27:02;;;;;;;21.08;16.70;;;;;;;3.29;68.42;102788.06;5014410;28;20069;-86
2023/01/29 07:29:27;;;;;;;14.07;12.93;;;;;;;3.29;68.16;102793.41;5016532;28;20030;-85
2023/01/29 07:31:53;;;;;;;20.17;17.70;;;;;;;3.29;68.20;102781.88;5016535;28;20040;-87
2023/01/29 07:34:18;;;;;;;18.63;17.08;;;;;;;3.28;68.26;102781.03;5013516;28;20367;-84
2023/01/29 07:36:43;;;;;;;13.40;12.57;;;;;;;3.28;68.11;102786.38;5014286;28;20111;-87
2023/01/29 07:39:09;;;;;;;23.08;15.50;;;;;;;3.29;68.34;102790.72;5012353;28;20075;-82
2023/01/29 07:41:34;;;;;;;19.27;17.35;;;;;;;3.29;68.28;102779.22;5012792;28;20022;-84
2023/01/29 07:43:59;;;;;;;15.05;13.85;;;;;;;3.29;68.12;102793.41;5014967;28;20454;-87
2023/01/29 07:46:25;;;;;;;14.88;13.38;;;;;;;3.30;68.00;102799.56;5017530;28;20080;-85
2023/01/29 07:48:50;;;;;;;17.83;16.05;;;;;;;3.30;68.32;102795.09;5017358;28;20041;-86
2023/01/29 07:51:17;;;;;;;14.23;12.93;;;;;;;3.29;68.38;102774.69;5018529;28;20034;-86
2023/01/29 07:53:43;;;;;;;14.73;13.48;;;;;;;3.29;68.14;102768.53;5017303;28;20022;-87
2023/01/29 07:56:09;;;;;;;16.40;14.48;;;;;;;3.29;68.07;102772.03;5017305;28;20056;-86
2023/01/29 07:58:34;;;;;;;14.52;12.98;;;;;;;3.31;68.27;102782.59;5016786;28;20367;-84
2023/01/29 08:01:04;;;;;;;15.65;14.10;;;;;;;3.30;68.25;102781.75;5016523;28;20405;-86
2023/01/29 08:03:29;;;;;;;24.15;18.58;;;;;;;3.31;68.09;102779.91;5017503;28;20029;-85
2023/01/29 08:05:56;;;;;;;16.92;15.35;;;;;;;3.31;68.36;102771.91;5016657;28;20427;-85
2023/01/29 08:08:22;;;;;;;12.52;11.80;;;;;;;3.31;68.53;102771.91;5017256;28;20473;-75
2023/01/29 08:10:47;;;;;;;19.27;17.38;;;;;;;3.30;68.41;102768.41;5018085;28;20080;-87
2023/01/29 08:13:13;;;;;;;15.60;14.18;;;;;;;3.31;68.20;102774.56;5015346;28;20034;-87
2023/01/29 08:15:44;;;;;;;14.60;13.38;;;;;;;3.30;68.15;102762.19;5017100;28;20477;-85
2023/01/29 08:18:10;;;;;;;13.32;12.40;;;;;;;3.30;68.07;102762.19;5016638;28;20034;-83
2023/01/29 08:20:36;;;;;;;17.77;14.93;;;;;;;3.29;68.51;102753.34;5016658;28;20056;-87
2023/01/29 08:23:07;;;;;;;17.80;16.27;;;;;;;3.31;68.09;102761.22;5016481;28;20039;-84
2023/01/29 08:25:33;;;;;;;24.50;18.83;;;;;;;3.31;68.37;102761.22;5016258;28;20025;-83
2023/01/29 08:27:59;;;;;;;14.23;12.82;;;;;;;3.32;68.01;102754.88;5016141;28;20393;-82
2023/01/29 08:30:27;;;;;;;11.15;10.52;;;;;;;3.31;68.18;102756.72;5016068;28;20064;-75
2023/01/29 08:32:53;;;;;;;14.37;13.23;;;;;;;3.33;68.17;102756.56;5015852;28;20473;-84
2023/01/29 08:35:18;;;;;;;16.75;15.45;;;;;;;3.33;68.40;102761.91;5016040;28;20057;-86
2023/01/29 08:37:43;;;;;;;15.43;13.85;;;;;;;3.33;68.38;102757.41;5016352;28;20026;-83
2023/01/29 08:40:12;;;;;;;16.33;14.73;;;;;;;3.32;67.99;102753.03;5015791;28;20049;-84
2023/01/29 08:42:37;;;;;;;21.98;17.02;;;;;;;3.33;68.16;102748.56;5015785;28;20466;-86
2023/01/29 08:45:03;;;;;;;15.50;13.82;;;;;;;3.33;68.47;102738.72;5015948;28;20029;-85
2023/01/29 08:47:29;;;;;;;18.75;15.57;;;;;;;3.34;68.40;102737.72;5015777;28;20485;-83
2023/01/29 08:49:54;;;;;;;28.83;16.45;;;;;;;3.34;68.27;102724.34;5016385;28;20034;-85
2023/01/29 08:52:19;;;;;;;18.02;13.77;;;;;;;3.33;68.43;102730.69;5016085;28;20105;-85
2023/01/29 08:54:45;;;;;;;18.40;16.55;;;;;;;3.34;68.09;102728.88;5018617;28;20033;-86
2023/01/29 08:57:13;;;;;;;22.15;16.23;;;;;;;3.36;68.44;102726.91;5003344;28;20042;-86
2023/01/29 08:59:38;;;;;;;16.52;13.20;;;;;;;3.35;68.22;102727.88;5016107;28;20034;-81
2023/01/29 09:02:04;;;;;;;12.82;11.70;;;;;;;3.35;68.31;102731.41;5020546;28;20026;-87
2023/01/29 09:04:29;;;;;;;17.75;15.98;;;;;;;3.35;68.17;102736.75;5019419;28;20474;-76
2023/01/29 09:06:54;;;;;;;13.70;12.73;;;;;;;3.35;68.09;102747.44;5015661;28;20117;-83
2023/01/29 09:09:20;;;;;;;19.08;17.17;;;;;;;3.36;67.95;102751.78;5015837;28;20037;-84
2023/01/29 09:11:45;;;;;;;17.95;16.00;;;;;;;3.37;68.04;102749.94;5015105;28;20434;-83
2023/01/29 09:14:13;;;;;;;15.48;14.15;;;;;;;3.37;68.09;102742.75;5013955;28;20076;-81
2023/01/29 09:16:38;;;;;;;13.98;12.85;;;;;;;3.38;68.19;102743.63;5015345;28;20026;-85
2023/01/29 09:19:04;;;;;;;24.52;19.95;;;;;;;3.38;67.91;102743.63;5015633;28;20493;-83
2023/01/29 09:21:29;;;;;;;17.63;16.13;;;;;;;3.38;68.35;102744.47;5015367;28;20454;-75
2023/01/29 09:23:54;;;;;;;19.63;15.60;;;;;;;3.39;68.22;102742.63;5013883;28;20042;-84
2023/01/29 09:26:20;;;;;;;16.00;14.23;;;;;;;3.39;68.07;102740.78;5015192;28;20491;-85
2023/01/29 09:28:45;;;;;;;14.35;13.25;;;;;;;3.39;67.98;102739.94;5015211;28;20030;-85
2023/01/29 09:31:11;;;;;;;15.10;13.95;;;;;;;3.39;68.29;102738.13;5018644;28;20065;-83
2023/01/29 09:33:36;;;;;;;16.25;14.85;;;;;;;3.39;68.30;102740.78;5018618;28;20073;-83
2023/01/29 09:36:03;;;;;;;16.02;14.50;;;;;;;3.38;68.17;102739.13;5017274;28;20398;-84
2023/01/29 09:38:29;;;;;;;14.23;13.02;;;;;;;3.39;68.29;102737.28;5015616;28;20033;-82
2023/01/29 09:40:57;;;;;;;18.30;15.73;;;;;;;3.40;68.23;102726.47;5014965;28;20037;-82
2023/01/29 09:43:31;;;;;;;25.50;13.32;;;;;;;3.40;68.50;102729.13;5014536;28;20018;-85
2023/01/29 09:46:16;;;;;;;17.58;15.73;;;;;;;3.41;68.20;102727.28;5015492;28;20034;-83
2023/01/29 09:48:44;;;;;;;18.73;16.73;;;;;;;3.42;67.91;102723.63;5014965;28;20122;-84
2023/01/29 09:51:22;;;;;;;17.85;14.40;;;;;;;3.41;68.32;102725.47;5014761;28;20100;-85
2023/01/29 09:53:59;;;;;;;18.42;16.88;;;;;;;3.41;68.18;102725.47;5014602;28;20044;-83
2023/01/29 09:56:27;;;;;;;15.15;13.70;;;;;;;3.41;68.10;102720.13;5014645;28;20022;-85
2023/01/29 09:58:57;;;;;;;15.27;14.20;;;;;;;3.41;68.08;102719.28;5014735;28;20030;-83
2023/01/29 10:01:27;;;;;;;13.75;12.82;;;;;;;3.41;67.87;102717.44;5015619;28;20026;-85
2023/01/29 10:04:30;;;;;;;16.08;14.57;;;;;;;3.43;68.04;102722.66;5017781;28;20026;-85
2023/01/29 10:07:10;;;;;;;15.77;14.27;;;;;;;3.41;68.14;102728.13;5015419;28;20025;-84
2023/01/29 10:09:42;;;;;;;12.18;11.38;;;;;;;3.41;68.13;102728.13;5023113;28;20026;-77
2023/01/29 10:12:28;;;;;;;13.20;12.27;;;;;;;3.41;68.40;102722.78;5025716;28;20022;-85
2023/01/29 10:15:30;;;;;;;16.92;15.43;;;;;;;3.42;68.01;102726.28;5015528;28;20076;-85
2023/01/29 10:18:10;;;;;;;14.30;13.02;;;;;;;3.42;68.05;102740.50;5014781;28;20080;-85
2023/01/29 10:21:00;;;;;;;15.45;13.32;;;;;;;3.42;67.98;102740.50;5015409;28;20049;-86
2023/01/29 10:24:07;;;;;;;17.23;15.65;;;;;;;3.43;68.02;102734.19;5017314;28;20053;-83
2023/01/29 10:26:36;;;;;;;11.50;10.60;;;;;;;3.44;68.16;102718.97;5003354;28;20098;-82
2023/01/29 10:29:06;;;;;;;17.20;15.63;;;;;;;3.44;68.19;102713.63;5032690;28;20095;-84
2023/01/29 10:31:37;;;;;;;16.25;14.68;;;;;;;3.43;68.36;102712.81;5032110;28;20033;-81
2023/01/29 10:34:15;;;;;;;16.40;15.20;;;;;;;3.44;68.25;102709.13;5028099;28;20026;-80
2023/01/29 10:36:44;;;;;;;23.77;17.00;;;;;;;3.45;68.37;102704.63;5030228;28;20053;-86
2023/01/29 10:39:20;;;;;;;;;;;;;;;3.46;68.26;102701.81;5026448;28;20025;-84
2023/01/29 10:42:05;;;;;;;20.38;18.23;;;;;;;3.45;67.96;102700.16;5020120;28;19913;-85
2023/01/29 10:44:44;;;;;;;13.60;12.43;;;;;;;3.45;67.94;102700.16;5015635;28;20525;-84
2023/01/29 10:47:34;;;;;;;16.05;14.55;;;;;;;3.46;67.94;102698.31;5015061;28;20160;-85
2023/01/29 10:50:17;;;;;;;16.08;14.57;;;;;;;3.47;67.98;102694.63;5013819;28;20084;-86
2023/01/29 10:53:21;;;;;;;20.05;18.10;;;;;;;3.48;68.33;102696.34;5013606;28;20026;-80
2023/01/29 10:55:55;;;;;;;23.33;18.60;;;;;;;3.47;67.96;102692.78;5002726;28;20041;-81
2023/01/29 10:58:47;;;;;;;16.58;14.93;;;;;;;3.50;68.03;102694.34;5013781;28;20419;-87
2023/01/29 11:01:13;;;;;;;15.48;13.93;;;;;;;3.51;67.95;102689.84;5012160;28;20029;-84
2023/01/29 11:03:38;;;;;;;14.52;13.05;;;;;;;3.51;68.01;102681.84;5012459;28;20060;-85
2023/01/29 11:06:37;;;;;;;13.82;12.73;;;;;;;3.52;68.27;102675.50;5013912;28;20085;-85
2023/01/29 11:09:24;;;;;;;22.67;18.92;;;;;;;3.53;68.21;102667.34;5014591;28;20030;-82
2023/01/29 11:11:56;;;;;;;33.90;21.88;;;;;;;3.52;67.99;102657.63;5011850;28;20111;-80
2023/01/29 11:14:30;;;;;;;21.35;15.40;;;;;;;3.53;67.98;102647.78;5012111;28;20033;-79
2023/01/29 11:16:55;;;;;;;35.47;27.30;;;;;;;3.55;68.07;102635.09;5012007;28;20113;-83
2023/01/29 11:19:40;;;;;;;31.52;21.30;;;;;;;3.57;68.29;102627.78;5011245;28;20070;-80
2023/01/29 11:22:14;;;;;;;21.63;18.02;;;;;;;3.56;68.26;102616.28;5015825;28;20080;-75
2023/01/29 11:24:39;;;;;;;19.00;17.40;;;;;;;3.58;68.26;102610.75;5016893;28;20036;-85
2023/01/29 11:27:22;;;;;;;22.35;18.30;;;;;;;3.59;68.07;102629.31;5016034;28;20034;-84
2023/01/29 11:29:48;;;;;;;22.50;14.63;;;;;;;3.60;67.85;102611.44;5017419;28;20080;-87
2023/01/29 11:32:34;;;;;;;18.08;15.95;;;;;;;3.60;68.20;102612.31;5017290;28;20462;-80
2023/01/29 11:35:04;;;;;;;16.75;15.30;;;;;;;3.61;67.90;102603.28;5016508;28;20131;-86
2023/01/29 11:37:38;;;;;;;16.73;15.00;;;;;;;3.61;68.14;102597.13;5015911;28;20487;-84
2023/01/29 11:40:19;;;;;;;16.52;14.77;;;;;;;3.61;68.15;102594.44;5017354;28;20506;-84
2023/01/29 11:42:48;;;;;;;17.50;15.68;;;;;;;3.62;68.04;102590.75;5016531;28;20092;-79
2023/01/29 11:45:33;;;;;;;13.35;12.35;;;;;;;3.63;68.35;102584.44;5016788;28;20049;-85
2023/01/29 11:47:59;;;;;;;15.38;13.82;;;;;;;3.63;68.22;102582.59;5016547;28;20037;-82
2023/01/29 11:50:30;;;;;;;21.98;16.38;;;;;;;3.63;68.13;102577.28;5016705;28;20029;-84
2023/01/29 11:52:58;;;;;;;21.00;18.85;;;;;;;3.63;68.13;102573.75;5016470;28;20018;-84
2023/01/29 11:55:30;;;;;;;15.60;14.10;;;;;;;3.64;68.05;102570.09;5020064;28;20091;-76
2023/01/29 11:58:02;;;;;;;21.92;18.15;;;;;;;3.65;68.43;102556.59;5017051;28;20475;-87
2023/01/29 12:00:31;;;;;;;28.08;15.77;;;;;;;3.66;68.09;102546.72;5017092;28;20089;-85
2023/01/29 12:03:06;;;;;;;23.80;19.50;;;;;;;3.65;67.92;102543.22;5016333;28;20449;-83
2023/01/29 12:05:32;;;;;;;18.67;16.45;;;;;;;3.66;67.97;102541.38;5016265;28;20030;-82